Time;durP1;ratioP1;P1;durP2;ratioP2;P2;SDS_P1;SDS_P2;PMS_P1;PMS_P2;Temp;Humidity;BMP_temperature;BMP_pressure;BME280_temperature;BME280_humidity;BME280_pressure;Samples;Min_cycle;Max_cycle;Signal;HPM_P1;HPM_P2
2023/12/31 00:01:44;;;;;;;6.07;1.67;;;;;;;-146.25;100.00;70816.00;5079970;28;20039;-66
2023/12/31 00:04:10;;;;;;;7.57;1.90;;;;;;;-146.25;100.00;70816.00;5078135;28;20024;-65
2023/12/31 00:06:35;;;;;;;5.63;1.70;;;;;;;-146.25;100.00;70816.00;5084343;28;20055;-65
2023/12/31 00:09:00;;;;;;;8.68;2.35;;;;;;;-146.25;100.00;70816.00;5082725;28;20060;-65
2023/12/31 00:11:26;;;;;;;7.00;1.80;;;;;;;-146.25;100.00;70816.00;5083532;28;20467;-57
2023/12/31 00:13:51;;;;;;;6.43;1.80;;;;;;;-146.25;100.00;70816.00;5078242;28;20461;-65
2023/12/31 00:16:16;;;;;;;4.97;1.90;;;;;;;-146.25;100.00;70816.00;5076660;28;20618;-65
2023/12/31 00:18:41;;;;;;;5.13;1.80;;;;;;;-146.25;100.00;70816.00;5080042;28;20028;-65
2023/12/31 00:21:07;;;;;;;5.55;1.70;;;;;;;-146.25;100.00;70816.00;5079834;28;20060;-67
2023/12/31 00:23:32;;;;;;;5.82;2.08;;;;;;;-146.25;100.00;70816.00;5077451;28;20582;-65
2023/12/31 00:25:58;;;;;;;8.02;1.80;;;;;;;-146.25;100.00;70816.00;5078301;28;20111;-66
2023/12/31 00:28:23;;;;;;;6.32;1.80;;;;;;;-146.25;100.00;70816.00;5076180;28;20039;-66
2023/12/31 00:30:48;;;;;;;6.88;1.80;;;;;;;-146.25;100.00;70816.00;5078438;28;20040;-65
2023/12/31 00:33:14;;;;;;;7.05;1.80;;;;;;;-146.25;100.00;70816.00;5076040;28;20149;-64
2023/12/31 00:35:39;;;;;;;4.70;1.77;;;;;;;-146.25;100.00;70816.00;5077790;28;20035;-66
2023/12/31 00:38:04;;;;;;;6.68;2.22;;;;;;;-146.25;100.00;70816.00;5076984;28;20131;-65
2023/12/31 00:40:30;;;;;;;8.07;2.30;;;;;;;-146.25;100.00;70816.00;5078410;28;20032;-64
2023/12/31 00:42:55;;;;;;;5.82;1.77;;;;;;;-146.25;100.00;70816.00;5077090;28;20040;-64
2023/12/31 00:45:20;;;;;;;5.28;1.70;;;;;;;-146.25;100.00;70816.00;5079731;28;20083;-64
2023/12/31 00:47:46;;;;;;;6.72;2.03;;;;;;;-146.25;100.00;70816.00;5080173;28;20032;-63
2023/12/31 00:50:11;;;;;;;6.20;1.77;;;;;;;-146.25;100.00;70816.00;5080102;28;20035;-64
2023/12/31 00:52:36;;;;;;;7.22;1.95;;;;;;;-146.25;100.00;70816.00;5077866;28;20157;-63
2023/12/31 00:55:02;;;;;;;7.03;2.88;;;;;;;-146.25;100.00;70816.00;5077748;28;20043;-62
2023/12/31 00:57:29;;;;;;;5.10;1.55;;;;;;;-146.25;100.00;70816.00;5079687;28;20493;-63
2023/12/31 00:59:54;;;;;;;7.35;1.90;;;;;;;-146.25;100.00;70816.00;5081336;28;20036;-66
2023/12/31 01:02:19;;;;;;;3.90;1.75;;;;;;;-146.25;100.00;70816.00;5078079;28;20039;-64
2023/12/31 01:04:45;;;;;;;3.80;1.77;;;;;;;-146.25;100.00;70816.00;5077301;28;20050;-63
2023/12/31 01:07:10;;;;;;;7.32;1.70;;;;;;;-146.25;100.00;70816.00;5076741;28;20460;-62
2023/12/31 01:09:35;;;;;;;4.57;1.80;;;;;;;-146.25;100.00;70816.00;5075658;28;20040;-62
2023/12/31 01:12:00;;;;;;;6.28;1.80;;;;;;;-146.25;100.00;70816.00;5077938;28;20047;-65
2023/12/31 01:14:26;;;;;;;7.97;2.20;;;;;;;-146.25;100.00;70816.00;5075492;28;20071;-66
2023/12/31 01:16:51;;;;;;;6.78;2.00;;;;;;;-146.25;100.00;70816.00;5076825;28;20757;-64
2023/12/31 01:19:17;;;;;;;6.00;1.77;;;;;;;-146.25;100.00;70816.00;5076542;28;20033;-64
2023/12/31 01:21:42;;;;;;;6.38;1.58;;;;;;;-146.25;100.00;70816.00;5081021;28;20380;-64
2023/12/31 01:24:07;;;;;;;4.53;1.80;;;;;;;-146.25;100.00;70816.00;5077581;28;20040;-64
2023/12/31 01:26:33;;;;;;;8.25;1.80;;;;;;;-146.25;100.00;70816.00;5075894;28;20035;-64
2023/12/31 01:28:58;;;;;;;3.63;1.67;;;;;;;-146.25;100.00;70816.00;5075846;28;20094;-64
2023/12/31 01:31:24;;;;;;;10.10;2.20;;;;;;;-146.25;100.00;70816.00;5065460;28;20029;-65
2023/12/31 01:33:49;;;;;;;5.05;1.65;;;;;;;-146.25;100.00;70816.00;5075763;28;20122;-64
2023/12/31 01:36:20;;;;;;;3.38;1.50;;;;;;;-146.25;100.00;70816.00;5078741;28;20101;-63
2023/12/31 01:38:45;;;;;;;7.40;2.03;;;;;;;-146.25;100.00;70816.00;5078084;28;20039;-64
2023/12/31 01:41:11;;;;;;;7.15;2.00;;;;;;;-146.25;100.00;70816.00;5076537;28;20040;-63
2023/12/31 01:43:37;;;;;;;7.53;1.92;;;;;;;-146.25;100.00;70816.00;5076555;28;20036;-63
2023/12/31 01:46:04;;;;;;;7.20;1.70;;;;;;;-146.25;100.00;70816.00;5074659;28;20048;-62
2023/12/31 01:48:30;;;;;;;5.53;1.80;;;;;;;-146.25;100.00;70816.00;5078549;28;20051;-63
2023/12/31 01:50:55;;;;;;;6.10;1.90;;;;;;;-146.25;100.00;70816.00;5074981;28;20503;-64
2023/12/31 01:53:21;;;;;;;5.07;1.90;;;;;;;-146.25;100.00;70816.00;5079241;28;20032;-64
2023/12/31 01:55:49;;;;;;;5.13;2.00;;;;;;;-146.25;100.00;70816.00;5074186;28;20388;-62
2023/12/31 01:58:15;;;;;;;6.18;1.70;;;;;;;-146.25;100.00;70816.00;5075370;28;20186;-64
2023/12/31 02:00:41;;;;;;;3.75;1.67;;;;;;;-146.25;100.00;70816.00;5078056;28;20719;-63
2023/12/31 02:03:07;;;;;;;5.93;1.55;;;;;;;-146.25;100.00;70816.00;5078700;28;20032;-62
2023/12/31 02:05:33;;;;;;;8.00;1.90;;;;;;;-146.25;100.00;70816.00;5075291;28;20036;-64
2023/12/31 02:07:58;;;;;;;4.40;1.52;;;;;;;-146.25;100.00;70816.00;5075861;28;20047;-65
2023/12/31 02:10:23;;;;;;;5.65;2.05;;;;;;;-146.25;100.00;70816.00;5076139;28;20036;-63
2023/12/31 02:12:49;;;;;;;7.18;1.70;;;;;;;-146.25;100.00;70816.00;5076465;28;20037;-63
2023/12/31 02:15:28;;;;;;;3.92;1.80;;;;;;;-146.25;100.00;70816.00;5074784;28;20084;-64
2023/12/31 02:17:53;;;;;;;4.20;1.70;;;;;;;-146.25;100.00;70816.00;5065762;28;20088;-64
2023/12/31 02:20:19;;;;;;;4.38;1.70;;;;;;;-146.25;100.00;70816.00;5075052;28;20135;-64
2023/12/31 02:22:45;;;;;;;7.60;1.92;;;;;;;-146.25;100.00;70816.00;5075848;28;20420;-63
2023/12/31 02:25:12;;;;;;;3.80;1.65;;;;;;;-146.25;100.00;70816.00;5075851;28;20036;-65
2023/12/31 02:27:37;;;;;;;4.88;1.65;;;;;;;-146.25;100.00;70816.00;5075432;28;20089;-64
2023/12/31 02:30:03;;;;;;;5.35;2.00;;;;;;;-146.25;100.00;70816.00;5077382;28;20032;-65
2023/12/31 02:32:29;;;;;;;4.78;2.00;;;;;;;-146.25;100.00;70816.00;5079183;28;20117;-65
2023/12/31 02:34:54;;;;;;;10.05;2.10;;;;;;;-146.25;100.00;70816.00;5075739;28;20024;-64
2023/12/31 02:37:19;;;;;;;5.78;1.90;;;;;;;-146.25;100.00;70816.00;5075548;28;20460;-63
2023/12/31 02:39:44;;;;;;;3.30;1.80;;;;;;;-146.25;100.00;70816.00;5066814;28;20105;-62
2023/12/31 02:42:10;;;;;;;4.70;1.67;;;;;;;-146.25;100.00;70816.00;5075023;28;20040;-63
2023/12/31 02:44:35;;;;;;;5.03;1.88;;;;;;;-146.25;100.00;70816.00;5075700;28;20034;-62
2023/12/31 02:47:00;;;;;;;4.68;1.70;;;;;;;-146.25;100.00;70816.00;5074941;28;20160;-64
2023/12/31 02:49:26;;;;;;;4.80;2.20;;;;;;;-146.25;100.00;70816.00;5074430;28;20388;-63
2023/12/31 02:51:51;;;;;;;6.22;1.90;;;;;;;-146.25;100.00;70816.00;5075448;28;20386;-63
2023/12/31 02:54:17;;;;;;;6.10;1.83;;;;;;;-146.25;100.00;70816.00;5075897;28;20047;-64
2023/12/31 02:56:42;;;;;;;5.45;1.90;;;;;;;-146.25;100.00;70816.00;5078906;28;20117;-62
2023/12/31 02:59:08;;;;;;;8.45;2.08;;;;;;;-146.25;100.00;70816.00;5075648;28;20067;-62
2023/12/31 03:01:33;;;;;;;5.80;2.00;;;;;;;-146.25;100.00;70816.00;5074816;28;20056;-64
2023/12/31 03:03:58;;;;;;;6.30;1.92;;;;;;;-146.25;100.00;70816.00;5072074;28;20028;-62
2023/12/31 03:06:32;;;;;;;6.65;2.10;;;;;;;-146.25;100.00;70816.00;5074730;28;20142;-63
2023/12/31 03:09:01;;;;;;;;;;;;;;;-146.25;100.00;70816.00;5075899;28;20083;-62
2023/12/31 03:11:26;;;;;;;6.45;1.95;;;;;;;-146.25;100.00;70816.00;5075798;28;19919;-63
2023/12/31 03:13:52;;;;;;;8.35;2.00;;;;;;;-146.25;100.00;70816.00;5075048;28;20040;-63
2023/12/31 03:16:17;;;;;;;7.82;2.17;;;;;;;-146.25;100.00;70816.00;5076526;28;20036;-63
2023/12/31 03:18:42;;;;;;;3.88;1.85;;;;;;;-146.25;100.00;70816.00;5074167;28;20028;-62
2023/12/31 03:21:14;;;;;;;5.88;2.00;;;;;;;-146.25;100.00;70816.00;5070967;28;20044;-63
2023/12/31 03:23:39;;;;;;;6.78;2.10;;;;;;;-146.25;100.00;70816.00;5074445;28;20113;-63
2023/12/31 03:26:06;;;;;;;8.27;2.30;;;;;;;-146.25;100.00;70816.00;5074671;28;20429;-62
2023/12/31 03:28:31;;;;;;;6.82;2.15;;;;;;;-146.25;100.00;70816.00;5075827;28;20032;-63
2023/12/31 03:30:57;;;;;;;6.78;2.00;;;;;;;-146.25;100.00;70816.00;5072894;28;20045;-63
2023/12/31 03:33:22;;;;;;;6.25;2.15;;;;;;;-146.25;100.00;70816.00;5073794;28;20109;-64
2023/12/31 03:35:47;;;;;;;5.60;2.20;;;;;;;-146.25;100.00;70816.00;5075514;28;20040;-67
2023/12/31 03:38:12;;;;;;;9.57;2.63;;;;;;;-146.25;100.00;70816.00;5079410;28;20032;-67
2023/12/31 03:40:38;;;;;;;8.25;2.30;;;;;;;-146.25;100.00;70816.00;5078179;28;20028;-67
2023/12/31 03:43:04;;;;;;;7.63;2.30;;;;;;;-146.25;100.00;70816.00;5081845;28;20525;-65
2023/12/31 03:45:29;;;;;;;7.35;2.30;;;;;;;-146.25;100.00;70816.00;5081088;28;20032;-67
2023/12/31 03:47:54;;;;;;;8.10;2.40;;;;;;;-146.25;100.00;70816.00;5078387;28;20101;-68
2023/12/31 03:50:20;;;;;;;7.30;2.20;;;;;;;-146.25;100.00;70816.00;5079122;28;20045;-69
2023/12/31 03:52:45;;;;;;;5.65;2.20;;;;;;;-146.25;100.00;70816.00;5079301;28;20131;-67
2023/12/31 03:55:10;;;;;;;6.18;2.33;;;;;;;-146.25;100.00;70816.00;5076896;28;20037;-67
2023/12/31 03:57:36;;;;;;;6.75;2.10;;;;;;;-146.25;100.00;70816.00;5080861;28;20067;-68
2023/12/31 04:00:03;;;;;;;7.95;2.50;;;;;;;-146.25;100.00;70816.00;5079135;28;20033;-68
2023/12/31 04:02:29;;;;;;;11.88;2.60;;;;;;;-146.25;100.00;70816.00;5079871;28;20032;-67
2023/12/31 04:04:54;;;;;;;10.10;2.50;;;;;;;-146.25;100.00;70816.00;5076869;28;20035;-67
2023/12/31 04:07:19;;;;;;;8.10;2.40;;;;;;;-146.25;100.00;70816.00;5078590;28;20466;-65
2023/12/31 04:09:46;;;;;;;9.45;2.50;;;;;;;-146.25;100.00;70816.00;5079875;28;20032;-64
2023/12/31 04:12:12;;;;;;;7.38;2.30;;;;;;;-146.25;100.00;70816.00;5075561;28;20033;-66
2023/12/31 04:14:37;;;;;;;7.10;2.10;;;;;;;-146.25;100.00;70816.00;5077674;28;20040;-62
2023/12/31 04:17:03;;;;;;;7.93;2.22;;;;;;;-146.25;100.00;70816.00;5077459;28;20079;-65
2023/12/31 04:19:28;;;;;;;5.13;2.20;;;;;;;-146.25;100.00;70816.00;5078824;28;20459;-65
2023/12/31 04:21:54;;;;;;;7.60;2.60;;;;;;;-146.25;100.00;70816.00;5078775;28;20048;-65
2023/12/31 04:24:19;;;;;;;10.10;2.47;;;;;;;-146.25;100.00;70816.00;5078267;28;20031;-64
2023/12/31 04:26:45;;;;;;;7.35;2.30;;;;;;;-146.25;100.00;70816.00;5077718;28;20547;-64
2023/12/31 04:29:11;;;;;;;6.97;2.00;;;;;;;-146.25;100.00;70816.00;5077198;28;20702;-64
2023/12/31 04:31:47;;;;;;;4.63;2.10;;;;;;;-146.25;100.00;70816.00;5077296;28;20850;-65
2023/12/31 04:34:13;;;;;;;6.55;2.25;;;;;;;-146.25;100.00;70816.00;5079899;28;20036;-64
2023/12/31 04:36:43;;;;;;;7.95;2.42;;;;;;;-146.25;100.00;70816.00;5078414;28;20045;-64
2023/12/31 04:39:08;;;;;;;7.57;2.38;;;;;;;-146.25;100.00;70816.00;5077408;28;20093;-64
2023/12/31 04:41:33;;;;;;;6.75;2.35;;;;;;;-146.25;100.00;70816.00;5080465;28;20404;-66
2023/12/31 04:43:59;;;;;;;4.30;2.13;;;;;;;-146.25;100.00;70816.00;5078822;28;20127;-64
2023/12/31 04:46:25;;;;;;;6.88;2.60;;;;;;;-146.25;100.00;70816.00;5077933;28;20032;-64
2023/12/31 04:48:50;;;;;;;7.20;2.33;;;;;;;-146.25;100.00;70816.00;5078042;28;20458;-64
2023/12/31 04:51:30;;;;;;;10.00;2.58;;;;;;;-146.25;100.00;70816.00;5075851;28;20036;-63
2023/12/31 04:53:56;;;;;;;8.52;2.63;;;;;;;-146.25;100.00;70816.00;5078454;28;20036;-65
2023/12/31 04:56:25;;;;;;;8.07;2.40;;;;;;;-146.25;100.00;70816.00;5079450;28;20050;-66
2023/12/31 04:58:56;;;;;;;8.32;2.60;;;;;;;-146.25;100.00;70816.00;5079200;28;20032;-64
2023/12/31 05:01:31;;;;;;;8.57;2.67;;;;;;;-146.25;100.00;70816.00;5078510;28;20066;-66
2023/12/31 05:03:58;;;;;;;8.10;2.50;;;;;;;-146.25;100.00;70816.00;5077200;28;20389;-64
2023/12/31 05:06:23;;;;;;;6.97;2.40;;;;;;;-146.25;100.00;70816.00;5075579;28;20524;-64
2023/12/31 05:08:48;;;;;;;7.35;2.78;;;;;;;-146.25;100.00;70816.00;5076668;28;20047;-66
2023/12/31 05:11:14;;;;;;;7.70;2.75;;;;;;;-146.25;100.00;70816.00;5080991;28;20055;-66
2023/12/31 05:13:41;;;;;;;12.40;2.95;;;;;;;-146.25;100.00;70816.00;5077750;28;20032;-63
2023/12/31 05:16:07;;;;;;;8.20;2.55;;;;;;;-146.25;100.00;70816.00;5075927;28;20039;-63
2023/12/31 05:18:33;;;;;;;5.57;2.38;;;;;;;-146.25;100.00;70816.00;5079672;28;20484;-64
2023/12/31 05:21:01;;;;;;;6.95;2.70;;;;;;;-146.25;100.00;70816.00;5079748;28;20036;-63
2023/12/31 05:23:27;;;;;;;10.75;2.72;;;;;;;-146.25;100.00;70816.00;5076975;28;20036;-62
2023/12/31 05:25:53;;;;;;;9.77;2.65;;;;;;;-146.25;100.00;70816.00;5080874;28;20036;-62
2023/12/31 05:28:18;;;;;;;8.00;2.70;;;;;;;-146.25;100.00;70816.00;5077642;28;20145;-63
2023/12/31 05:30:43;;;;;;;6.60;2.60;;;;;;;-146.25;100.00;70816.00;5077275;28;20121;-62
2023/12/31 05:33:12;;;;;;;6.35;2.60;;;;;;;-146.25;100.00;70816.00;5067428;28;20032;-64
2023/12/31 05:35:37;;;;;;;9.20;2.80;;;;;;;-146.25;100.00;70816.00;5077133;28;20041;-63
2023/12/31 05:38:02;;;;;;;8.13;2.60;;;;;;;-146.25;100.00;70816.00;5076810;28;20070;-63
2023/12/31 05:40:28;;;;;;;10.10;2.92;;;;;;;-146.25;100.00;70816.00;5077683;28;20196;-64
2023/12/31 05:42:53;;;;;;;9.68;2.80;;;;;;;-146.25;100.00;70816.00;5078308;28;20035;-63
2023/12/31 05:45:19;;;;;;;8.20;2.83;;;;;;;-146.25;100.00;70816.00;5078811;28;20047;-64
2023/12/31 05:47:46;;;;;;;9.88;2.90;;;;;;;-146.25;100.00;70816.00;5075351;28;20476;-63
2023/12/31 05:50:11;;;;;;;8.88;2.63;;;;;;;-146.25;100.00;70816.00;5076257;28;20029;-63
2023/12/31 05:52:37;;;;;;;9.35;2.80;;;;;;;-146.25;100.00;70816.00;5076208;28;20043;-65
2023/12/31 05:55:02;;;;;;;7.80;2.70;;;;;;;-146.25;100.00;70816.00;5075842;28;20062;-65
2023/12/31 05:57:28;;;;;;;8.70;2.78;;;;;;;-146.25;100.00;70816.00;5076037;28;20040;-64
2023/12/31 05:59:53;;;;;;;8.30;2.92;;;;;;;-146.25;100.00;70816.00;5076718;28;20060;-63
2023/12/31 06:02:18;;;;;;;8.88;3.00;;;;;;;-146.25;100.00;70816.00;5076766;28;20124;-64
2023/12/31 06:04:43;;;;;;;10.13;3.10;;;;;;;-146.25;100.00;70816.00;5076225;28;20067;-62
2023/12/31 06:07:09;;;;;;;8.40;2.78;;;;;;;-146.25;100.00;70816.00;5077920;28;20032;-65
2023/12/31 06:09:34;;;;;;;7.53;2.80;;;;;;;-146.25;100.00;70816.00;5075084;28;20036;-63
2023/12/31 06:11:59;;;;;;;7.80;2.78;;;;;;;-146.25;100.00;70816.00;5074897;28;20140;-64
2023/12/31 06:14:25;;;;;;;8.70;2.80;;;;;;;-146.25;100.00;70816.00;5074164;28;20075;-63
2023/12/31 06:16:50;;;;;;;10.18;3.10;;;;;;;-146.25;100.00;70816.00;5075849;28;20039;-62
2023/12/31 06:19:15;;;;;;;10.65;2.95;;;;;;;-146.25;100.00;70816.00;5076034;28;20114;-64
2023/12/31 06:21:41;;;;;;;11.52;3.13;;;;;;;-146.25;100.00;70816.00;5078745;28;20491;-64
2023/12/31 06:24:06;;;;;;;9.98;3.00;;;;;;;-146.25;100.00;70816.00;5074746;28;20110;-64
2023/12/31 06:26:31;;;;;;;9.23;3.00;;;;;;;-146.25;100.00;70816.00;5076469;28;20035;-64
2023/12/31 06:28:56;;;;;;;7.15;2.80;;;;;;;-146.25;100.00;70816.00;5075266;28;20029;-64
2023/12/31 06:31:22;;;;;;;8.18;2.90;;;;;;;-146.25;100.00;70816.00;5086430;28;20140;-64
2023/12/31 06:33:47;;;;;;;10.27;3.22;;;;;;;-146.25;100.00;70816.00;5085714;28;20032;-67
2023/12/31 06:36:12;;;;;;;9.13;2.90;;;;;;;-146.25;100.00;70816.00;5071525;28;20052;-63
2023/12/31 06:38:38;;;;;;;7.40;3.15;;;;;;;-146.25;100.00;70816.00;5072400;28;20033;-63
2023/12/31 06:41:07;;;;;;;10.55;3.10;;;;;;;-146.25;100.00;70816.00;5073860;28;20033;-64
2023/12/31 06:43:34;;;;;;;9.55;2.92;;;;;;;-146.25;100.00;70816.00;5077102;28;20029;-65
2023/12/31 06:45:59;;;;;;;9.73;3.03;;;;;;;-146.25;100.00;70816.00;5070270;28;20036;-64
2023/12/31 06:48:25;;;;;;;10.57;3.30;;;;;;;-146.25;100.00;70816.00;5080365;28;20112;-65
2023/12/31 06:50:51;;;;;;;9.38;2.97;;;;;;;-146.25;100.00;70816.00;5086976;28;20138;-63
2023/12/31 06:53:16;;;;;;;9.10;3.15;;;;;;;-146.25;100.00;70816.00;5071306;28;20569;-64
2023/12/31 06:55:41;;;;;;;9.45;3.05;;;;;;;-146.25;100.00;70816.00;5073196;28;20094;-64
2023/12/31 06:58:06;;;;;;;7.38;2.97;;;;;;;-146.25;100.00;70816.00;5073417;28;20056;-67
2023/12/31 07:00:32;;;;;;;10.38;3.20;;;;;;;-146.25;100.00;70816.00;5070703;28;20039;-67
2023/12/31 07:02:57;;;;;;;10.93;3.40;;;;;;;-146.25;100.00;70816.00;5074483;28;20547;-67
2023/12/31 07:05:22;;;;;;;10.93;3.13;;;;;;;-146.25;100.00;70816.00;5072811;28;20096;-67
2023/12/31 07:07:48;;;;;;;9.48;2.95;;;;;;;-146.25;100.00;70816.00;5073464;28;20371;-66
2023/12/31 07:10:13;;;;;;;13.35;3.38;;;;;;;-146.25;100.00;70816.00;5073823;28;20120;-68
2023/12/31 07:12:38;;;;;;;9.55;3.13;;;;;;;-146.25;100.00;70816.00;5070944;28;20385;-68
2023/12/31 07:15:04;;;;;;;9.98;3.10;;;;;;;-146.25;100.00;70816.00;5074736;28;20032;-67
2023/12/31 07:17:29;;;;;;;9.75;3.30;;;;;;;-146.25;100.00;70816.00;5071560;28;20036;-68
2023/12/31 07:19:55;;;;;;;9.90;3.10;;;;;;;-146.25;100.00;70816.00;5075226;28;20480;-67
2023/12/31 07:22:20;;;;;;;8.40;3.13;;;;;;;-146.25;100.00;70816.00;5071617;28;20055;-68
2023/12/31 07:24:45;;;;;;;9.85;3.00;;;;;;;-146.25;100.00;70816.00;5073420;28;20566;-67
2023/12/31 07:27:11;;;;;;;10.45;3.15;;;;;;;-146.25;100.00;70816.00;5069779;28;20078;-67
2023/12/31 07:29:36;;;;;;;11.65;3.22;;;;;;;-146.25;100.00;70816.00;5073312;28;20040;-67
2023/12/31 07:32:01;;;;;;;13.70;3.40;;;;;;;-146.25;100.00;70816.00;5071180;28;20047;-67
2023/12/31 07:34:26;;;;;;;9.45;2.88;;;;;;;-146.25;100.00;70816.00;5061723;28;20044;-67
2023/12/31 07:36:52;;;;;;;11.27;3.47;;;;;;;-146.25;100.00;70816.00;5071658;28;20049;-68
2023/12/31 07:39:17;;;;;;;12.18;3.58;;;;;;;-146.25;100.00;70816.00;5070039;28;20494;-67
2023/12/31 07:41:45;;;;;;;12.98;3.50;;;;;;;-146.25;100.00;70816.00;5072445;28;20452;-68
2023/12/31 07:44:11;;;;;;;16.17;4.53;;;;;;;-146.25;100.00;70816.00;5073019;28;20453;-68
2023/12/31 07:46:37;;;;;;;12.85;3.80;;;;;;;-146.25;100.00;70816.00;5072845;28;20108;-67
2023/12/31 07:49:03;;;;;;;13.40;3.80;;;;;;;-146.25;100.00;70816.00;5071239;28;20035;-68
2023/12/31 07:51:28;;;;;;;10.98;3.42;;;;;;;-146.25;100.00;70816.00;5071140;28;20375;-67
2023/12/31 07:53:54;;;;;;;9.88;3.20;;;;;;;-146.25;100.00;70816.00;5072204;28;20521;-68
2023/12/31 07:56:19;;;;;;;12.82;3.72;;;;;;;-146.25;100.00;70816.00;5070418;28;20504;-65
2023/12/31 07:58:45;;;;;;;14.13;3.80;;;;;;;-146.25;100.00;70816.00;5071988;28;20043;-64
2023/12/31 08:01:10;;;;;;;12.00;3.50;;;;;;;-146.25;100.00;70816.00;5071625;28;20029;-65
2023/12/31 08:03:35;;;;;;;12.25;3.50;;;;;;;-146.25;100.00;70816.00;5070795;28;20123;-66
2023/12/31 08:06:02;;;;;;;11.45;3.55;;;;;;;-146.25;100.00;70816.00;5072368;28;20123;-65
2023/12/31 08:08:27;;;;;;;10.30;3.33;;;;;;;-146.25;100.00;70816.00;5073734;28;20044;-65
2023/12/31 08:10:53;;;;;;;11.10;3.30;;;;;;;-146.25;100.00;70816.00;5073099;28;20032;-66
2023/12/31 08:13:19;;;;;;;11.75;3.30;;;;;;;-146.25;100.00;70816.00;5061849;28;20032;-65
2023/12/31 08:15:44;;;;;;;12.50;3.10;;;;;;;-146.25;100.00;70816.00;5071567;28;20069;-65
2023/12/31 08:18:09;;;;;;;11.93;3.55;;;;;;;-146.25;100.00;70816.00;5074063;28;20119;-66
2023/12/31 08:20:35;;;;;;;11.65;3.50;;;;;;;-146.25;100.00;70816.00;5071595;28;20358;-65
2023/12/31 08:23:00;;;;;;;11.38;3.58;;;;;;;-146.25;100.00;70816.00;5075500;28;20593;-65
2023/12/31 08:25:25;;;;;;;11.23;3.38;;;;;;;-146.25;100.00;70816.00;5077612;28;20052;-66
2023/12/31 08:27:51;;;;;;;13.13;3.38;;;;;;;-146.25;100.00;70816.00;5077238;28;20112;-66
2023/12/31 08:30:16;;;;;;;8.23;3.38;;;;;;;-146.25;100.00;70816.00;5076321;28;20051;-66
2023/12/31 08:32:41;;;;;;;12.80;3.38;;;;;;;-146.25;100.00;70816.00;5075972;28;20133;-66
2023/12/31 08:35:08;;;;;;;7.72;2.70;;;;;;;-146.25;100.00;70816.00;5076349;28;20059;-68
2023/12/31 08:37:33;;;;;;;7.85;2.78;;;;;;;-146.25;100.00;70816.00;5074060;28;20044;-66
2023/12/31 08:39:59;;;;;;;12.27;3.05;;;;;;;-146.25;100.00;70816.00;5075029;28;20044;-66
2023/12/31 08:42:24;;;;;;;9.82;2.95;;;;;;;-146.25;100.00;70816.00;5063604;28;20128;-66
2023/12/31 08:44:49;;;;;;;9.48;3.33;;;;;;;-146.25;100.00;70816.00;5072189;28;20033;-66
2023/12/31 08:47:15;;;;;;;10.07;3.10;;;;;;;-146.25;100.00;70816.00;5071108;28;20037;-66
2023/12/31 08:49:40;;;;;;;9.60;3.08;;;;;;;-146.25;100.00;70816.00;5074342;28;20049;-62
2023/12/31 08:52:06;;;;;;;9.93;2.90;;;;;;;-146.25;100.00;70816.00;5074972;28;20032;-62
2023/12/31 08:54:31;;;;;;;11.50;3.47;;;;;;;-146.25;100.00;70816.00;5089015;28;20563;-61
2023/12/31 08:56:56;;;;;;;10.63;3.25;;;;;;;-146.25;100.00;70816.00;5090201;28;20036;-62
2023/12/31 08:59:22;;;;;;;7.43;2.78;;;;;;;-146.25;100.00;70816.00;5080106;28;20424;-58
2023/12/31 09:01:47;;;;;;;8.98;2.83;;;;;;;-146.25;100.00;70816.00;5079539;28;20051;-56
2023/12/31 09:04:13;;;;;;;10.73;3.13;;;;;;;-146.25;100.00;70816.00;5075688;28;20032;-59
2023/12/31 09:06:39;;;;;;;9.40;2.92;;;;;;;-146.25;100.00;70816.00;5085837;28;20037;-61
2023/12/31 09:09:07;;;;;;;8.55;2.70;;;;;;;-146.25;100.00;70816.00;5071209;28;20381;-61
2023/12/31 09:11:32;;;;;;;7.47;2.45;;;;;;;-146.25;100.00;70816.00;5071836;28;20758;-60
2023/12/31 09:13:59;;;;;;;6.93;2.40;;;;;;;-146.25;100.00;70816.00;5075227;28;20036;-61
2023/12/31 09:16:25;;;;;;;7.43;2.50;;;;;;;-146.25;100.00;70816.00;5075833;28;20055;-61
2023/12/31 09:18:50;;;;;;;6.85;2.78;;;;;;;-146.25;100.00;70816.00;5074127;28;20024;-60
2023/12/31 09:21:15;;;;;;;6.97;2.63;;;;;;;-146.25;100.00;70816.00;5074190;28;20039;-61
2023/12/31 09:23:40;;;;;;;9.10;2.95;;;;;;;-146.25;100.00;70816.00;5074968;28;20037;-60
2023/12/31 09:26:06;;;;;;;6.32;2.35;;;;;;;-146.25;100.00;70816.00;5075384;28;20040;-61
2023/12/31 09:28:31;;;;;;;5.68;2.15;;;;;;;-146.25;100.00;70816.00;5075095;28;20598;-61
2023/12/31 09:30:56;;;;;;;6.53;2.22;;;;;;;-146.25;100.00;70816.00;5075930;28;20588;-61
2023/12/31 09:33:22;;;;;;;7.75;2.40;;;;;;;-146.25;100.00;70816.00;5071774;28;20036;-63
2023/12/31 09:35:47;;;;;;;6.40;2.28;;;;;;;-146.25;100.00;70816.00;5075014;28;20032;-61
2023/12/31 09:38:12;;;;;;;4.38;1.98;;;;;;;-146.25;100.00;70816.00;5074374;28;20025;-61
2023/12/31 09:40:38;;;;;;;6.40;1.90;;;;;;;-146.25;100.00;70816.00;5075184;28;20069;-61
2023/12/31 09:43:05;;;;;;;6.90;2.05;;;;;;;-146.25;100.00;70816.00;5074893;28;20763;-61
2023/12/31 09:45:30;;;;;;;6.97;2.22;;;;;;;-146.25;100.00;70816.00;5072552;28;20040;-61
2023/12/31 09:47:59;;;;;;;7.30;2.30;;;;;;;-146.25;100.00;70816.00;5079482;28;20055;-60
2023/12/31 09:50:25;;;;;;;6.03;2.15;;;;;;;-146.25;100.00;70816.00;5074509;28;20032;-60
2023/12/31 09:52:56;;;;;;;4.65;1.98;;;;;;;-146.25;100.00;70816.00;5076896;28;20050;-61
2023/12/31 09:55:23;;;;;;;5.45;2.08;;;;;;;-146.25;100.00;70816.00;5088472;28;20538;-62
2023/12/31 09:57:52;;;;;;;5.85;2.28;;;;;;;-146.25;100.00;70816.00;5073120;28;20454;-61
2023/12/31 10:00:19;;;;;;;8.02;2.50;;;;;;;-146.25;100.00;70816.00;5075935;28;20041;-61
2023/12/31 10:02:45;;;;;;;8.63;2.33;;;;;;;-146.25;100.00;70816.00;5073893;28;20097;-60
2023/12/31 10:05:11;;;;;;;6.90;2.40;;;;;;;-146.25;100.00;70816.00;5074484;28;20048;-61
2023/12/31 10:07:36;;;;;;;7.53;2.50;;;;;;;-146.25;100.00;70816.00;5063394;28;20176;-60
2023/12/31 10:10:03;;;;;;;6.72;2.15;;;;;;;-146.25;100.00;70816.00;5073329;28;20039;-61
2023/12/31 10:12:29;;;;;;;7.40;2.10;;;;;;;-146.25;100.00;70816.00;5072398;28;20070;-61
2023/12/31 10:14:55;;;;;;;4.32;1.70;;;;;;;-146.25;100.00;70816.00;5061265;28;20078;-60
2023/12/31 10:17:20;;;;;;;10.65;2.20;;;;;;;-146.25;100.00;70816.00;5072432;28;20067;-61
2023/12/31 10:19:45;;;;;;;7.20;2.30;;;;;;;-146.25;100.00;70816.00;5070511;28;20222;-60
2023/12/31 10:22:12;;;;;;;5.47;1.90;;;;;;;-146.25;100.00;70816.00;5071155;28;20055;-62
2023/12/31 10:24:37;;;;;;;6.70;2.20;;;;;;;-146.25;100.00;70816.00;5072228;28;21172;-60
2023/12/31 10:27:04;;;;;;;6.40;2.20;;;;;;;-146.25;100.00;70816.00;5070009;28;20492;-60
2023/12/31 10:29:32;;;;;;;5.88;1.90;;;;;;;-146.25;100.00;70816.00;5069397;28;20146;-63
2023/12/31 10:31:57;;;;;;;5.68;1.75;;;;;;;-146.25;100.00;70816.00;5072562;28;20484;-60
2023/12/31 10:34:22;;;;;;;5.28;1.60;;;;;;;-146.25;100.00;70816.00;5073645;28;20089;-61
2023/12/31 10:36:48;;;;;;;7.90;2.22;;;;;;;-146.25;100.00;70816.00;5074582;28;20044;-60
2023/12/31 10:39:33;;;;;;;6.60;1.88;;;;;;;-146.25;100.00;70816.00;5075537;28;20098;-61
2023/12/31 10:42:06;;;;;;;5.13;1.48;;;;;;;-146.25;100.00;70816.00;5071642;28;20115;-61
2023/12/31 10:44:36;;;;;;;5.72;1.88;;;;;;;-146.25;100.00;70816.00;5070196;28;20066;-60
2023/12/31 10:47:06;;;;;;;6.80;2.10;;;;;;;-146.25;100.00;70816.00;5070719;28;20032;-62
2023/12/31 10:49:32;;;;;;;5.82;1.75;;;;;;;-146.25;100.00;70816.00;5071648;28;20422;-61
2023/12/31 10:52:02;;;;;;;8.88;2.35;;;;;;;-146.25;100.00;70816.00;5070831;28;20070;-61
2023/12/31 10:54:37;;;;;;;6.82;2.13;;;;;;;-146.25;100.00;70816.00;5061883;28;20043;-61
2023/12/31 10:57:05;;;;;;;7.47;2.20;;;;;;;-146.25;100.00;70816.00;5068551;28;20052;-61
2023/12/31 10:59:31;;;;;;;7.43;2.20;;;;;;;-146.25;100.00;70816.00;5087429;28;20047;-61
2023/12/31 11:01:56;;;;;;;6.63;1.80;;;;;;;-146.25;100.00;70816.00;5086926;28;20499;-60